createdAt,value
2016-04-03T00:00:31.618Z,8.74
2016-04-03T00:01:31.621Z,8.79
2016-04-03T00:03:31.814Z,8.63
2016-04-03T00:04:31.645Z,8.66
2016-04-03T00:05:31.631Z,8.65
2016-04-03T00:06:31.634Z,8.71
2016-04-03T00:07:31.653Z,8.65
2016-04-03T00:08:31.640Z,8.71
2016-04-03T00:09:31.861Z,8.66
2016-04-03T00:10:31.692Z,8.74
2016-04-03T00:11:31.663Z,8.66
2016-04-03T00:12:31.885Z,8.68
2016-04-03T00:13:31.653Z,8.65
2016-04-03T00:14:45.768Z,8.74
2016-04-03T00:15:31.908Z,8.8
2016-04-03T00:16:31.849Z,8.74
2016-04-03T00:17:31.852Z,8.7
2016-04-03T00:18:45.795Z,8.68
2016-04-03T00:19:31.889Z,8.7
2016-04-03T00:20:31.657Z,8.76
2016-04-03T00:21:31.660Z,8.74
2016-04-03T00:22:31.663Z,8.65
2016-04-03T00:23:31.680Z,8.71
2016-04-03T00:24:31.668Z,8.71
2016-04-03T00:25:31.904Z,8.63
2016-04-03T00:26:31.674Z,8.73
2016-04-03T00:27:31.863Z,8.68
2016-04-03T00:28:31.913Z,8.66
2016-04-03T00:29:31.682Z,8.68
2016-04-03T00:30:31.887Z,8.73
2016-04-03T00:31:45.783Z,8.73
2016-04-03T00:32:45.989Z,8.66
2016-04-03T00:33:31.676Z,8.79
2016-04-03T00:34:31.726Z,8.74
2016-04-03T00:35:31.197Z,8.66
2016-04-03T00:36:31.887Z,8.68
2016-04-03T00:37:31.702Z,8.77
2016-04-03T00:38:31.689Z,8.68
2016-04-03T00:39:31.723Z,8.74
2016-04-03T00:40:31.695Z,8.68
2016-04-03T00:41:31.698Z,8.73
2016-04-03T00:42:31.904Z,8.68
2016-04-03T00:43:31.734Z,8.7
2016-04-03T00:44:31.941Z,8.7
2016-04-03T00:45:31.724Z,8.71
2016-04-03T00:46:31.727Z,8.71
2016-04-03T00:47:31.933Z,8.65
2016-04-03T00:48:31.919Z,8.66
2016-04-03T00:49:31.922Z,8.65
2016-04-03T00:50:31.706Z,8.68
2016-04-03T00:51:46.024Z,8.62
2016-04-03T00:52:31.727Z,8.63
2016-04-03T00:53:31.746Z,8.65
2016-04-03T00:54:31.749Z,8.58
2016-04-03T00:55:31.454Z,8.59
2016-04-03T00:56:45.850Z,8.55
2016-04-03T00:57:31.271Z,8.55
2016-04-03T00:58:31.728Z,8.48
2016-04-03T00:59:31.731Z,8.52
2016-04-03T01:00:31.733Z,8.48
2016-04-03T01:01:31.737Z,8.53
2016-04-03T01:02:31.739Z,8.47
2016-04-03T01:03:32.570Z,8.41
2016-04-03T01:04:31.854Z,8.43
2016-04-03T01:05:31.763Z,8.44
2016-04-03T01:06:31.953Z,8.43
2016-04-03T01:07:31.768Z,8.43
2016-04-03T01:08:32.152Z,8.47
2016-04-03T01:09:31.749Z,8.44
2016-04-03T01:10:31.954Z,8.45
2016-04-03T01:11:31.769Z,8.47
2016-04-03T01:12:31.772Z,8.37
2016-04-03T01:13:31.774Z,8.37
2016-04-03T01:14:45.858Z,8.44
2016-04-03T01:15:31.967Z,8.4
2016-04-03T01:16:31.768Z,8.33
2016-04-03T01:17:31.758Z,8.38
2016-04-03T01:18:31.980Z,8.47
2016-04-03T01:19:31.873Z,8.47
2016-04-03T01:20:31.782Z,8.45
2016-04-03T01:21:31.785Z,8.45
2016-04-03T01:22:31.787Z,8.38
2016-04-03T01:23:31.774Z,8.44
2016-04-03T01:24:31.980Z,8.43
2016-04-03T01:25:31.796Z,8.43
2016-04-03T01:26:31.767Z,8.45
2016-04-03T01:27:31.786Z,8.41
2016-04-03T01:28:31.991Z,8.48
2016-04-03T01:29:31.791Z,8.4
2016-04-03T01:30:31.777Z,8.45
2016-04-03T01:31:31.796Z,8.45
2016-04-03T01:32:32.018Z,8.43
2016-04-03T01:33:32.035Z,8.47
2016-04-03T01:34:31.835Z,8.45
2016-04-03T01:35:31.806Z,8.5
2016-04-03T01:36:31.809Z,8.4
2016-04-03T01:37:31.812Z,8.4
2016-04-03T01:38:31.814Z,8.45
2016-04-03T01:39:31.802Z,8.44
2016-04-03T01:40:31.804Z,8.47
2016-04-03T01:41:31.807Z,8.41
2016-04-03T01:42:32.044Z,8.45
2016-04-03T01:43:31.812Z,8.45
2016-04-03T01:44:31.800Z,8.45
2016-04-03T01:45:32.036Z,8.48
2016-04-03T01:46:31.805Z,8.45
2016-04-03T01:47:31.823Z,8.59
2016-04-03T01:48:32.014Z,8.58
2016-04-03T01:49:32.048Z,8.48
2016-04-03T01:50:32.050Z,8.52
2016-04-03T01:51:46.133Z,8.52
2016-04-03T01:52:31.836Z,8.53
2016-04-03T01:53:31.824Z,8.48
2016-04-03T01:54:31.827Z,8.52
2016-04-03T01:55:32.049Z,8.56
2016-04-03T01:56:31.363Z,8.48
2016-04-03T01:57:31.835Z,8.55
2016-04-03T01:58:31.837Z,8.52
2016-04-03T01:59:31.840Z,8.48
2016-04-03T02:00:31.843Z,8.45
2016-04-03T02:01:31.846Z,8.48
2016-04-03T02:02:32.036Z,8.55
2016-04-03T02:03:32.054Z,8.59
2016-04-03T02:04:31.885Z,8.53
2016-04-03T02:05:31.856Z,8.52
2016-04-03T02:08:31.697Z,8.53
2016-04-03T02:09:31.856Z,8.65
2016-04-03T02:10:32.109Z,8.58
2016-04-03T02:11:31.862Z,8.62
2016-04-03T02:12:32.553Z,8.68
2016-04-03T02:13:31.851Z,8.68
2016-04-03T02:14:31.854Z,8.63
2016-04-03T02:15:31.888Z,8.68
2016-04-03T02:16:31.875Z,8.63
2016-04-03T02:17:31.862Z,8.73
2016-04-03T02:18:31.880Z,8.66
2016-04-03T02:19:31.883Z,8.7
2016-04-03T02:20:31.869Z,8.59
2016-04-03T02:21:31.872Z,8.65
2016-04-03T02:22:31.875Z,8.63
2016-04-03T02:23:32.097Z,8.59
2016-04-03T02:25:32.087Z,8.61
2016-04-03T02:26:31.902Z,8.5
2016-04-03T02:27:31.888Z,8.5
2016-04-03T02:28:32.485Z,8.59
2016-04-03T02:29:31.144Z,8.58
2016-04-03T02:30:31.757Z,8.52
2016-04-03T02:31:31.899Z,8.52
2016-04-03T02:32:31.902Z,8.53
2016-04-03T02:33:31.889Z,8.47
2016-04-03T02:34:32.126Z,8.52
2016-04-03T02:35:32.145Z,8.47
2016-04-03T02:36:31.913Z,8.44
2016-04-03T02:37:31.885Z,8.56
2016-04-03T02:38:31.903Z,8.44
2016-04-03T02:39:31.890Z,8.44
2016-04-03T02:40:31.908Z,8.44
2016-04-03T02:41:31.926Z,8.43
2016-04-03T02:42:32.336Z,8.4
2016-04-03T02:43:31.931Z,8.43
2016-04-03T02:44:31.903Z,8.47
2016-04-03T02:46:32.331Z,8.41
2016-04-03T02:47:32.162Z,8.4
2016-04-03T02:48:31.945Z,8.43
2016-04-03T02:49:32.183Z,8.45
2016-04-03T02:50:46.016Z,8.45
2016-04-03T02:51:31.922Z,8.4
2016-04-03T02:52:31.955Z,8.45
2016-04-03T02:53:31.927Z,8.38
2016-04-03T02:54:31.977Z,8.44
2016-04-03T02:55:31.933Z,8.43
2016-04-03T02:56:31.952Z,8.44
2016-04-03T02:57:31.938Z,8.45
2016-04-03T02:58:31.941Z,8.44
2016-04-03T02:59:31.929Z,8.52
2016-04-03T03:00:31.947Z,8.43
2016-04-03T03:01:31.934Z,8.38
2016-04-03T03:02:32.171Z,8.38
2016-04-03T03:03:32.204Z,8.38
2016-04-03T03:04:32.207Z,8.4
2016-04-03T03:05:32.148Z,8.28
2016-04-03T03:06:31.947Z,8.33
2016-04-03T03:07:31.950Z,8.28
2016-04-03T03:08:31.952Z,8.26
2016-04-03T03:09:46.239Z,8.25
2016-04-03T03:10:31.942Z,8.33
2016-04-03T03:11:31.961Z,8.33
2016-04-03T03:12:31.964Z,8.22
2016-04-03T03:13:31.966Z,8.25
2016-04-03T03:14:31.953Z,8.3
2016-04-03T03:15:31.971Z,8.29
2016-04-03T03:16:31.958Z,8.19
2016-04-03T03:17:32.164Z,8.33
2016-04-03T03:18:31.963Z,8.36
2016-04-03T03:19:32.092Z,8.23
2016-04-03T03:20:46.066Z,8.28
2016-04-03T03:21:32.175Z,8.22
2016-04-03T03:22:32.162Z,8.26
2016-04-03T03:23:32.196Z,8.22
2016-04-03T03:24:32.167Z,8.33
2016-04-03T03:25:31.982Z,8.26
2016-04-03T03:26:32.188Z,8.23
2016-04-03T03:27:31.972Z,8.2
2016-04-03T03:28:31.974Z,8.15
2016-04-03T03:29:31.962Z,8.16
2016-04-03T03:30:31.996Z,8.11
2016-04-03T03:31:31.545Z,8.11
2016-04-03T03:32:32.189Z,8.08
2016-04-03T03:33:31.988Z,8.02
2016-04-03T03:34:32.101Z,7.97
2016-04-03T03:35:31.979Z,8
2016-04-03T03:36:31.981Z,8
2016-04-03T03:38:31.986Z,7.9
2016-04-03T03:39:31.989Z,7.87
2016-04-03T03:40:31.976Z,7.77
2016-04-03T03:41:31.509Z,7.92
2016-04-03T03:42:32.215Z,7.97
2016-04-03T03:43:31.999Z,7.86
2016-04-03T03:44:46.302Z,7.82
2016-04-03T03:45:31.505Z,7.86
2016-04-03T03:46:31.992Z,7.85
2016-04-03T03:47:31.995Z,7.87
2016-04-03T03:48:46.109Z,7.83
2016-04-03T03:49:31.563Z,7.85
2016-04-03T03:50:32.002Z,7.97
2016-04-03T03:51:31.989Z,7.87
2016-04-03T03:52:31.992Z,7.87
2016-04-03T03:53:31.994Z,7.87
2016-04-03T03:54:32.216Z,7.87
2016-04-03T03:55:32.438Z,7.89
2016-04-03T03:56:32.003Z,7.93
2016-04-03T03:57:32.006Z,7.97
2016-04-03T03:58:32.619Z,7.92
2016-04-03T03:59:32.011Z,7.89
2016-04-03T04:00:32.061Z,7.9
2016-04-03T04:01:31.860Z,7.89
2016-04-03T04:02:31.707Z,7.9
2016-04-03T04:03:32.288Z,7.86
2016-04-03T04:04:32.274Z,7.83
2016-04-03T04:05:32.059Z,7.79
2016-04-03T04:06:32.061Z,7.87
2016-04-03T04:07:32.221Z,7.93
2016-04-03T04:08:32.004Z,7.86
2016-04-03T04:09:32.023Z,7.86
2016-04-03T04:10:32.010Z,7.79
2016-04-03T04:11:32.028Z,7.87
2016-04-03T04:12:32.031Z,7.83
2016-04-03T04:13:32.048Z,7.75
2016-04-03T04:14:32.020Z,7.87
2016-04-03T04:15:32.226Z,7.79
2016-04-03T04:16:32.025Z,7.82
2016-04-03T04:17:46.311Z,7.9
2016-04-03T04:18:32.046Z,7.79
2016-04-03T04:19:32.143Z,7.85
2016-04-03T04:20:31.536Z,7.89
2016-04-03T04:21:32.039Z,7.85
2016-04-03T04:22:46.155Z,7.83
2016-04-03T04:23:32.045Z,7.86
2016-04-03T04:24:32.047Z,7.83
2016-04-03T04:25:32.222Z,7.85
2016-04-03T04:26:32.068Z,7.89
2016-04-03T04:27:32.040Z,7.79
2016-04-03T04:28:32.043Z,7.86
2016-04-03T04:29:32.045Z,7.87
2016-04-03T04:30:32.064Z,7.69
2016-04-03T04:31:32.269Z,7.85
2016-04-03T04:32:32.054Z,7.87
2016-04-03T04:33:32.291Z,7.82
2016-04-03T04:34:46.265Z,7.87
2016-04-03T04:35:32.046Z,7.87
2016-04-03T04:36:32.064Z,7.79
2016-04-03T04:37:32.035Z,7.77
2016-04-03T04:38:32.070Z,7.83
2016-04-03T04:39:32.290Z,7.85
2016-04-03T04:40:31.590Z,7.89
2016-04-03T04:41:32.045Z,7.82
2016-04-03T04:42:32.064Z,7.87
2016-04-03T04:43:32.051Z,7.83
2016-04-03T04:44:32.054Z,7.86
2016-04-03T04:45:32.057Z,7.85
2016-04-03T04:46:32.059Z,7.86
2016-04-03T04:47:31.890Z,7.98
2016-04-03T04:48:32.127Z,7.95
2016-04-03T04:49:32.192Z,7.95
2016-04-03T04:50:32.258Z,7.89
2016-04-03T04:51:32.464Z,7.89
2016-04-03T04:52:32.278Z,7.97
2016-04-03T04:53:46.158Z,8.04
2016-04-03T04:54:32.065Z,8.01
2016-04-03T04:55:32.083Z,8.04
2016-04-03T04:56:31.586Z,7.97
2016-04-03T04:57:46.358Z,8.01
2016-04-03T04:58:32.061Z,8
2016-04-03T04:59:32.063Z,8.05
2016-04-03T05:00:32.066Z,8.02
2016-04-03T05:01:32.069Z,8.04
2016-04-03T05:02:32.071Z,8
2016-04-03T05:03:46.373Z,8.01
2016-04-03T05:04:31.951Z,8.02
2016-04-03T05:05:32.063Z,8.05
2016-04-03T05:06:32.082Z,8
2016-04-03T05:07:32.335Z,8.01
2016-04-03T05:08:32.072Z,8.12
2016-04-03T05:09:32.074Z,8.04
2016-04-03T05:10:32.093Z,8.02
2016-04-03T05:11:32.095Z,8.08
2016-04-03T05:12:32.098Z,8.12
2016-04-03T05:13:32.085Z,8.05
2016-04-03T05:14:32.087Z,8.08
2016-04-03T05:15:32.283Z,8.05
2016-04-03T05:16:32.071Z,8.11
2016-04-03T05:17:32.062Z,8.16
2016-04-03T05:18:32.069Z,8.07
2016-04-03T05:19:32.171Z,8.11
2016-04-03T05:20:32.044Z,8.16
2016-04-03T05:21:32.262Z,8.16
2016-04-03T05:23:00.228Z,8.08
2016-04-03T05:23:32.025Z,8.11
2016-04-03T05:24:46.509Z,8.16
2016-04-03T05:25:32.260Z,8.18
2016-04-03T05:26:32.261Z,8.23
2016-04-03T05:27:32.434Z,8.23
2016-04-03T05:28:32.014Z,8.22
2016-04-03T05:29:32.046Z,8.23
2016-04-03T05:30:32.017Z,8.26
2016-04-03T05:31:32.066Z,8.2
2016-04-03T05:32:32.224Z,8.33
2016-04-03T05:33:32.055Z,8.33
2016-04-03T05:34:32.182Z,8.37
2016-04-03T05:35:32.263Z,8.43
2016-04-03T05:36:32.031Z,8.48
2016-04-03T05:37:32.252Z,8.4
2016-04-03T05:38:32.035Z,8.44
2016-04-03T05:39:32.054Z,8.41
2016-04-03T05:40:32.431Z,8.53
2016-04-03T05:41:32.106Z,8.52
2016-04-03T05:42:32.046Z,8.56
2016-04-03T05:43:32.673Z,8.59
2016-04-03T05:44:32.036Z,8.59
2016-04-03T05:45:32.444Z,8.62
2016-04-03T05:46:32.244Z,8.63
2016-04-03T05:47:32.075Z,8.66
2016-04-03T05:48:32.061Z,8.74
2016-04-03T05:49:32.533Z,8.8
2016-04-03T05:50:32.052Z,8.83
2016-04-03T05:51:32.070Z,8.91
2016-04-03T05:52:32.072Z,8.84
2016-04-03T05:53:32.060Z,8.98
2016-04-03T05:54:31.813Z,9.02
2016-04-03T05:55:32.081Z,9.1
2016-04-03T05:56:32.083Z,9.1
2016-04-03T05:57:32.055Z,9.1
2016-04-03T05:58:32.730Z,9.21
2016-04-03T05:59:32.327Z,9.13
2016-04-03T06:00:32.079Z,9.17
2016-04-03T06:01:32.332Z,9.18
2016-04-03T06:02:32.099Z,9.23
2016-04-03T06:03:32.102Z,9.33
2016-04-03T06:04:32.277Z,9.32
2016-04-03T06:05:32.093Z,9.39
2016-04-03T06:07:32.301Z,9.4
2016-04-03T06:08:32.507Z,9.46
2016-04-03T06:09:32.103Z,9.47
2016-04-03T06:10:32.106Z,9.57
2016-04-03T06:11:32.109Z,9.58
2016-04-03T06:12:32.345Z,9.72
2016-04-03T06:13:32.129Z,9.71
2016-04-03T06:14:31.632Z,9.72
2016-04-03T06:15:32.134Z,9.83
2016-04-03T06:16:32.122Z,9.78
2016-04-03T06:17:32.343Z,9.84
2016-04-03T06:18:32.377Z,9.84
2016-04-03T06:19:32.692Z,9.83
2016-04-03T06:20:32.351Z,9.94
2016-04-03T06:21:32.136Z,10.02
2016-04-03T06:22:32.153Z,10.01
2016-04-03T06:23:32.156Z,9.99
2016-04-03T06:24:32.159Z,10.08
2016-04-03T06:25:32.162Z,10.14
2016-04-03T06:26:32.774Z,10.14
2016-04-03T06:27:32.167Z,10.26
2016-04-03T06:28:32.170Z,10.23
2016-04-03T06:29:32.172Z,10.25
2016-04-03T06:30:32.222Z,10.29
2016-04-03T06:31:32.209Z,10.34
2016-04-03T06:32:32.399Z,10.38
2016-04-03T06:33:32.199Z,10.4
2016-04-03T06:34:32.686Z,10.45
2016-04-03T06:35:32.219Z,10.42
2016-04-03T06:36:32.207Z,10.52
2016-04-03T06:37:32.444Z,10.55
2016-04-03T06:38:32.415Z,10.68
2016-04-03T06:39:32.215Z,10.81
2016-04-03T06:40:32.218Z,10.73
2016-04-03T06:41:32.251Z,10.86
2016-04-03T06:42:32.238Z,10.79
2016-04-03T06:43:32.241Z,10.89
2016-04-03T06:44:32.259Z,10.86
2016-04-03T06:45:32.293Z,10.97
2016-04-03T06:46:32.265Z,10.99
2016-04-03T06:47:32.471Z,11.09
2016-04-03T06:48:46.568Z,11.03
2016-04-03T06:49:32.382Z,11.03
2016-04-03T06:50:32.260Z,11.15
2016-04-03T06:51:32.278Z,11.18
2016-04-03T06:52:32.265Z,11.14
2016-04-03T06:53:32.284Z,11.29
2016-04-03T06:54:32.286Z,11.28
2016-04-03T06:55:32.320Z,11.33
2016-04-03T06:56:32.542Z,11.46
2016-04-03T06:57:46.623Z,11.55
2016-04-03T06:58:32.548Z,11.67
2016-04-03T06:59:32.519Z,11.58
2016-04-03T07:00:32.334Z,11.62
2016-04-03T07:01:32.321Z,11.6
2016-04-03T07:02:32.355Z,11.75
2016-04-03T07:03:32.342Z,11.61
2016-04-03T07:04:32.657Z,11.64
2016-04-03T07:05:35.410Z,11.64
2016-04-03T07:06:32.366Z,11.69
2016-04-03T07:07:31.899Z,11.62
2016-04-03T07:08:32.371Z,11.62
2016-04-03T07:09:32.577Z,11.67
2016-04-03T07:10:32.376Z,11.73
2016-04-03T07:11:32.380Z,11.78
2016-04-03T07:12:32.398Z,11.79
2016-04-03T07:13:32.401Z,11.76
2016-04-03T07:14:32.404Z,11.88
2016-04-03T07:15:32.422Z,11.88
2016-04-03T07:16:32.424Z,11.9
2016-04-03T07:17:32.630Z,11.95
2016-04-03T07:18:31.946Z,11.95
2016-04-03T07:19:32.604Z,11.99
2016-04-03T07:20:32.435Z,11.98
2016-04-03T07:21:46.548Z,12.1
2016-04-03T07:22:32.456Z,12.13
2016-04-03T07:23:32.474Z,12.14
2016-04-03T07:24:32.476Z,12.12
2016-04-03T07:25:32.511Z,12.14
2016-04-03T07:26:32.482Z,12.21
2016-04-03T07:27:32.734Z,12.19
2016-04-03T07:28:32.487Z,12.27
2016-04-03T07:29:32.725Z,12.29
2016-04-03T07:30:32.727Z,12.29
2016-04-03T07:31:32.058Z,12.37
2016-04-03T07:32:32.577Z,12.46
2016-04-03T07:33:32.892Z,12.38
2016-04-03T07:34:32.567Z,12.42
2016-04-03T07:35:32.554Z,12.45
2016-04-03T07:36:32.759Z,12.5
2016-04-03T07:37:32.559Z,12.49
2016-04-03T07:38:32.609Z,12.54
2016-04-03T07:39:32.580Z,12.53
2016-04-03T07:40:32.583Z,12.53
2016-04-03T07:41:32.788Z,12.6
2016-04-03T07:42:32.807Z,12.56
2016-04-03T07:43:32.591Z,12.57
2016-04-03T07:44:32.624Z,12.62
2016-04-03T07:45:32.612Z,12.54
2016-04-03T07:46:32.646Z,12.71
2016-04-03T07:47:32.617Z,12.71
2016-04-03T07:48:32.635Z,12.71
2016-04-03T07:49:32.700Z,12.71
2016-04-03T07:50:32.687Z,12.74
2016-04-03T07:51:32.643Z,12.79
2016-04-03T07:52:32.896Z,12.72
2016-04-03T07:53:32.665Z,12.79
2016-04-03T07:54:46.776Z,12.83
2016-04-03T07:55:32.717Z,12.87
2016-04-03T07:56:46.782Z,12.83
2016-04-03T07:57:32.722Z,12.9
2016-04-03T07:58:32.709Z,12.87
2016-04-03T07:59:32.743Z,12.87
2016-04-03T08:00:32.714Z,12.87
2016-04-03T08:01:32.764Z,12.87
2016-04-03T08:02:46.828Z,12.86
2016-04-03T08:03:32.832Z,12.9
2016-04-03T08:04:32.772Z,12.97
2016-04-03T08:05:32.759Z,12.97
2016-04-03T08:06:46.887Z,13.01
2016-04-03T08:07:32.796Z,13.05
2016-04-03T08:08:32.799Z,13.07
2016-04-03T08:09:46.879Z,13.08
2016-04-03T08:10:46.882Z,13.12
2016-04-03T08:11:32.807Z,13.23
2016-04-03T08:12:32.872Z,13.22
2016-04-03T08:13:32.812Z,13.19
2016-04-03T08:14:32.846Z,13.29
2016-04-03T08:15:32.833Z,13.32
2016-04-03T08:16:32.866Z,13.44
2016-04-03T08:17:32.838Z,13.39
2016-04-03T08:18:32.887Z,13.41
2016-04-03T08:19:33.156Z,13.48
2016-04-03T08:20:33.049Z,13.48
2016-04-03T08:21:33.098Z,13.48
2016-04-03T08:22:33.118Z,13.45
2016-04-03T08:23:33.135Z,13.52
2016-04-03T08:24:33.107Z,13.6
2016-04-03T08:25:33.048Z,13.64
2016-04-03T08:26:32.910Z,13.7
2016-04-03T08:27:32.912Z,13.7
2016-04-03T08:28:32.931Z,13.67
2016-04-03T08:29:32.934Z,13.88
2016-04-03T08:30:32.951Z,13.84
2016-04-03T08:31:32.954Z,13.73
2016-04-03T08:32:32.957Z,13.78
2016-04-03T08:33:32.959Z,13.79
2016-04-03T08:34:33.134Z,13.71
2016-04-03T08:35:32.981Z,13.84
2016-04-03T08:36:32.764Z,13.84
2016-04-03T08:37:47.095Z,13.85
2016-04-03T08:38:47.332Z,13.89
2016-04-03T08:39:33.007Z,13.85
2016-04-03T08:40:33.103Z,13.88
2016-04-03T08:41:47.324Z,13.96
2016-04-03T08:42:33.030Z,13.88
2016-04-03T08:43:33.033Z,13.87
2016-04-03T08:44:33.083Z,13.88
2016-04-03T08:45:33.054Z,13.96
2016-04-03T08:46:32.776Z,13.91
2016-04-03T08:47:33.090Z,13.88
2016-04-03T08:48:33.093Z,13.85
2016-04-03T08:49:33.034Z,13.92
2016-04-03T08:50:33.114Z,13.99
2016-04-03T08:51:33.117Z,13.89
2016-04-03T08:52:33.120Z,13.97
2016-04-03T08:53:33.122Z,14
2016-04-03T08:54:33.125Z,14.07
2016-04-03T08:55:33.143Z,14.03
2016-04-03T08:56:33.192Z,14.14
2016-04-03T08:57:33.149Z,14.06
2016-04-03T08:58:33.386Z,14.15
2016-04-03T08:59:33.389Z,14.12
2016-04-03T09:00:33.188Z,14.28
2016-04-03T09:01:33.237Z,14.22
2016-04-03T09:02:33.240Z,14.29
2016-04-03T09:03:33.977Z,14.33
2016-04-03T09:04:33.449Z,14.42
2016-04-03T09:05:33.686Z,14.51
2016-04-03T09:06:33.236Z,14.57
2016-04-03T09:07:33.594Z,14.6
2016-04-03T09:08:33.248Z,14.62
2016-04-03T09:09:33.329Z,14.61
2016-04-03T09:10:33.269Z,14.55
2016-04-03T09:11:33.521Z,14.68
2016-04-03T09:12:33.321Z,14.75
2016-04-03T09:13:33.526Z,14.89
2016-04-03T09:14:33.529Z,14.84
2016-04-03T09:15:33.423Z,14.83
2016-04-03T09:16:47.426Z,14.95
2016-04-03T09:17:33.538Z,14.98
2016-04-03T09:19:33.621Z,15.14
2016-04-03T09:20:33.781Z,15.1
2016-04-03T09:21:33.361Z,15.1
2016-04-03T09:22:33.395Z,15.23
2016-04-03T09:23:33.397Z,15.31
2016-04-03T09:24:33.384Z,15.29
2016-04-03T09:25:33.683Z,15.29
2016-04-03T09:26:33.421Z,15.28
2016-04-03T09:27:33.424Z,15.5
2016-04-03T09:28:33.458Z,15.5
2016-04-03T09:29:33.648Z,15.54
2016-04-03T09:30:33.463Z,15.62
2016-04-03T09:31:47.575Z,15.56
2016-04-03T09:32:33.718Z,15.65
2016-04-03T09:33:33.566Z,15.62
2016-04-03T09:34:47.599Z,15.74
2016-04-03T09:35:33.508Z,15.74
2016-04-03T09:36:48.010Z,15.8
2016-04-03T09:37:33.591Z,15.92
2016-04-03T09:38:33.581Z,15.92
2016-04-03T09:39:33.536Z,15.86
2016-04-03T09:40:47.679Z,16.02
2016-04-03T09:41:33.589Z,16.02
2016-04-03T09:42:33.809Z,16.02
2016-04-03T09:43:33.609Z,16.02
2016-04-03T09:44:33.597Z,16.08
2016-04-03T09:45:33.787Z,16.08
2016-04-03T09:46:33.617Z,16.15
2016-04-03T09:47:33.823Z,16.3
2016-04-03T09:48:33.842Z,16.17
2016-04-03T09:49:34.219Z,16.34
2016-04-03T09:50:33.863Z,16.38
2016-04-03T09:51:33.662Z,16.43
2016-04-03T09:52:33.697Z,16.42
2016-04-03T09:53:34.543Z,16.48
2016-04-03T09:54:34.108Z,16.35
2016-04-03T09:55:33.907Z,16.41
2016-04-03T09:56:33.722Z,16.46
2016-04-03T09:57:33.741Z,16.43
2016-04-03T09:58:33.743Z,16.52
2016-04-03T09:59:33.762Z,16.52
2016-04-03T10:00:33.811Z,16.48
2016-04-03T10:01:33.783Z,16.53
2016-04-03T10:02:33.890Z,16.52
2016-04-03T10:03:33.832Z,16.49
2016-04-03T10:04:34.477Z,16.48
2016-04-03T10:05:33.894Z,16.42
2016-04-03T10:06:35.468Z,16.48
2016-04-03T10:07:34.065Z,16.43
2016-04-03T10:08:33.848Z,16.52
2016-04-03T10:09:33.867Z,16.49
2016-04-03T10:10:33.869Z,16.58
2016-04-03T10:11:34.076Z,16.63
2016-04-03T10:12:33.890Z,16.52
2016-04-03T10:13:34.112Z,16.68
2016-04-03T10:14:34.115Z,16.63
2016-04-03T10:15:33.945Z,16.63
2016-04-03T10:16:33.964Z,16.7
2016-04-03T10:17:33.950Z,16.73
2016-04-03T10:18:33.969Z,16.67
2016-04-03T10:19:33.941Z,16.68
2016-04-03T10:20:33.990Z,16.76
2016-04-03T10:21:34.196Z,16.7
2016-04-03T10:22:33.995Z,16.76
2016-04-03T10:23:47.639Z,16.68
2016-04-03T10:24:34.033Z,16.76
2016-04-03T10:25:34.035Z,16.82
2016-04-03T10:26:34.256Z,16.75
2016-04-03T10:27:34.055Z,16.75
2016-04-03T10:28:34.074Z,16.78
2016-04-03T10:29:34.077Z,16.76
2016-04-03T10:30:34.330Z,16.89
2016-04-03T10:31:34.099Z,16.82
2016-04-03T10:32:48.226Z,16.91
2016-04-03T10:33:34.322Z,16.76
2016-04-03T10:34:33.465Z,16.89
2016-04-03T10:35:48.249Z,16.94
2016-04-03T10:36:33.861Z,16.97
2016-04-03T10:37:48.473Z,16.94
2016-04-03T10:38:34.226Z,16.97
2016-04-03T10:39:34.198Z,16.93
2016-04-03T10:40:34.607Z,17.03
2016-04-03T10:41:34.218Z,17.08
2016-04-03T10:42:34.221Z,17.01
2016-04-03T10:43:34.709Z,17.04
2016-04-03T10:44:34.462Z,17.04
2016-04-03T10:45:34.479Z,17.12
2016-04-03T10:46:34.295Z,17.15
2016-04-03T10:47:34.517Z,17.11
2016-04-03T10:48:34.487Z,17.11
2016-04-03T10:49:34.397Z,17.18
2016-04-03T10:50:34.852Z,17.25
2016-04-03T10:51:34.323Z,17.3
2016-04-03T10:52:34.341Z,17.3
2016-04-03T10:53:34.360Z,17.37
2016-04-03T10:54:48.691Z,17.34
2016-04-03T10:55:34.366Z,17.36
2016-04-03T10:56:34.119Z,17.43
2016-04-03T10:57:34.418Z,17.41
2016-04-03T10:58:33.921Z,17.54
2016-04-03T10:59:34.454Z,17.49
2016-04-03T11:00:48.926Z,17.54
2016-04-03T11:01:48.537Z,17.66
2016-04-03T11:02:34.946Z,17.62
2016-04-03T11:03:34.465Z,17.55
2016-04-03T11:04:34.562Z,17.75
2016-04-03T11:05:34.721Z,17.75
2016-04-03T11:06:34.505Z,17.68
2016-04-03T11:07:34.531Z,17.78
2016-04-03T11:08:34.142Z,17.84
2016-04-03T11:09:34.536Z,17.92
2016-04-03T11:10:34.554Z,17.92
2016-04-03T11:11:34.604Z,17.95
2016-04-03T11:12:34.560Z,17.93
2016-04-03T11:13:34.687Z,17.93
2016-04-03T11:14:34.596Z,18.03
2016-04-03T11:15:34.630Z,18.07
2016-04-03T11:16:34.570Z,18.1
2016-04-03T11:17:34.635Z,18.14
2016-04-03T11:18:34.856Z,18.25
2016-04-03T11:19:34.672Z,18.2
2016-04-03T11:20:48.784Z,18.25
2016-04-03T11:21:34.927Z,18.14
2016-04-03T11:22:34.930Z,18.23
2016-04-03T11:23:34.730Z,18.18
2016-04-03T11:24:34.716Z,18.27
2016-04-03T11:25:35.157Z,18.35
2016-04-03T11:26:34.753Z,18.33
2016-04-03T11:27:34.991Z,18.44
2016-04-03T11:28:34.978Z,18.42
2016-04-03T11:29:34.793Z,18.55
2016-04-03T11:30:34.858Z,18.41
2016-04-03T11:31:35.064Z,18.55
2016-04-03T11:32:34.832Z,18.51
2016-04-03T11:33:34.866Z,18.55
2016-04-03T11:35:34.434Z,18.54
2016-04-03T11:36:34.890Z,18.51
2016-04-03T11:37:34.893Z,18.62
2016-04-03T11:38:34.911Z,18.6
2016-04-03T11:39:34.913Z,18.58
2016-04-03T11:40:49.026Z,18.62
2016-04-03T11:41:34.965Z,18.67
2016-04-03T11:42:34.953Z,18.7
2016-04-03T11:43:35.002Z,18.73
2016-04-03T11:44:49.536Z,18.85
2016-04-03T11:45:35.211Z,18.81
2016-04-03T11:46:49.104Z,18.91
2016-04-03T11:47:35.029Z,18.91
2016-04-03T11:48:35.922Z,18.91
2016-04-03T11:49:35.081Z,19.02
2016-04-03T11:50:35.334Z,19.11
2016-04-03T11:51:35.306Z,19.13
2016-04-03T11:52:35.105Z,19.25
2016-04-03T11:53:35.545Z,19.31
2016-04-03T11:54:35.329Z,19.4
2016-04-03T11:55:49.238Z,19.43
2016-04-03T11:56:35.381Z,19.46
2016-04-03T11:57:35.243Z,19.55
2016-04-03T11:58:35.386Z,19.59
2016-04-03T11:59:35.185Z,19.63
2016-04-03T12:00:35.219Z,19.73
2016-04-03T12:01:35.223Z,19.78
2016-04-03T12:02:35.429Z,19.76
2016-04-03T12:03:35.290Z,19.76
2016-04-03T12:04:35.263Z,19.66
2016-04-03T12:05:35.266Z,19.77
2016-04-03T12:06:49.393Z,19.69
2016-04-03T12:07:35.520Z,19.65
2016-04-03T12:08:35.320Z,19.71
2016-04-03T12:09:35.354Z,19.66
2016-04-03T12:10:35.372Z,19.63
2016-04-03T12:11:35.375Z,19.69
2016-04-03T12:12:35.393Z,19.77
2016-04-03T12:13:35.396Z,19.68
2016-04-03T12:14:35.429Z,19.63
2016-04-03T12:15:35.432Z,19.73
2016-04-03T12:16:34.951Z,19.73
2016-04-03T12:17:35.454Z,19.81
2016-04-03T12:18:35.550Z,19.83
2016-04-03T12:19:34.974Z,19.8
2016-04-03T12:20:35.712Z,19.81
2016-04-03T12:21:35.792Z,19.88
2016-04-03T12:22:35.529Z,19.78
2016-04-03T12:23:35.766Z,19.78
2016-04-03T12:24:35.784Z,19.81
2016-04-03T12:25:35.553Z,19.88
2016-04-03T12:26:35.618Z,19.98
2016-04-03T12:27:35.622Z,20.02
2016-04-03T12:28:35.608Z,19.99
2016-04-03T12:29:35.189Z,20.03
2016-04-03T12:30:35.848Z,20.03
2016-04-03T12:31:35.663Z,20.17
2016-04-03T12:32:49.978Z,20.18
2016-04-03T12:33:35.888Z,20.23
2016-04-03T12:34:35.749Z,20.42
2016-04-03T12:35:35.722Z,20.32
2016-04-03T12:36:35.724Z,20.5
2016-04-03T12:37:38.773Z,20.59
2016-04-03T12:38:35.776Z,20.66
2016-04-03T12:39:35.996Z,20.74
2016-04-03T12:40:35.782Z,20.79
2016-04-03T12:41:35.816Z,20.73
2016-04-03T12:42:35.833Z,20.77
2016-04-03T12:43:35.883Z,20.77
2016-04-03T12:44:50.183Z,20.79
2016-04-03T12:45:49.966Z,20.79
2016-04-03T12:46:35.891Z,20.91
2016-04-03T12:47:35.957Z,20.98
2016-04-03T12:48:35.944Z,20.95
2016-04-03T12:49:35.977Z,20.98
2016-04-03T12:50:35.949Z,21.06
2016-04-03T12:51:35.952Z,21.01
2016-04-03T12:52:35.985Z,21.06
2016-04-03T12:53:36.004Z,21.06
2016-04-03T12:54:36.006Z,21.06
2016-04-03T12:55:36.025Z,21.06
2016-04-03T12:57:36.062Z,21.03
2016-04-03T12:58:36.314Z,20.98
2016-04-03T12:59:36.129Z,20.99
2016-04-03T13:00:36.117Z,21.01
2016-04-03T13:01:36.135Z,20.99
2016-04-03T13:02:36.341Z,20.99
2016-04-03T13:03:36.155Z,20.97
2016-04-03T13:04:36.206Z,20.99
2016-04-03T13:05:36.161Z,21.01
2016-04-03T13:06:36.195Z,21.01
2016-04-03T13:07:36.214Z,21.01
2016-04-03T13:08:36.232Z,21.03
2016-04-03T13:09:50.547Z,20.94
2016-04-03T13:10:36.269Z,21.03
2016-04-03T13:11:36.522Z,20.95
2016-04-03T13:12:36.493Z,21.01
2016-04-03T13:13:36.324Z,20.95
2016-04-03T13:14:35.889Z,21.04
2016-04-03T13:15:36.579Z,21.01
2016-04-03T13:16:36.347Z,20.92
2016-04-03T13:17:36.366Z,21.07